sensor_id;sensor_type;location;lat;lon;timestamp;pressure;altitude;pressure_sealevel;temperature;humidity
36234;BME280;43467;50.890;5.982;2023-02-11T00:01:32;102066.91;;;7.20;74.52
36234;BME280;43467;50.890;5.982;2023-02-11T00:03:58;102078.28;;;7.22;74.69
36234;BME280;43467;50.890;5.982;2023-02-11T00:06:26;102078.31;;;7.20;74.73
36234;BME280;43467;50.890;5.982;2023-02-11T00:08:52;102084.47;;;7.16;75.08
36234;BME280;43467;50.890;5.982;2023-02-11T00:11:20;102087.06;;;7.27;74.66
36234;BME280;43467;50.890;5.982;2023-02-11T00:13:46;102083.59;;;7.20;75.15
36234;BME280;43467;50.890;5.982;2023-02-11T00:16:15;102075.69;;;7.14;75.32
36234;BME280;43467;50.890;5.982;2023-02-11T00:18:40;102075.69;;;7.17;75.58
36234;BME280;43467;50.890;5.982;2023-02-11T00:21:14;102077.44;;;7.11;75.79
36234;BME280;43467;50.890;5.982;2023-02-11T00:23:40;102066.94;;;6.98;75.96
36234;BME280;43467;50.890;5.982;2023-02-11T00:26:13;102071.31;;;7.09;75.87
36234;BME280;43467;50.890;5.982;2023-02-11T00:28:39;102071.31;;;7.07;76.07
36234;BME280;43467;50.890;5.982;2023-02-11T00:31:05;102073.06;;;7.07;76.14
36234;BME280;43467;50.890;5.982;2023-02-11T00:33:31;102058.13;;;7.12;75.98
36234;BME280;43467;50.890;5.982;2023-02-11T00:35:56;102053.75;;;7.09;75.91
36234;BME280;43467;50.890;5.982;2023-02-11T00:38:21;102057.28;;;7.00;76.36
36234;BME280;43467;50.890;5.982;2023-02-11T00:40:47;102049.38;;;7.08;76.08
36234;BME280;43467;50.890;5.982;2023-02-11T00:43:12;102050.25;;;7.09;76.31
36234;BME280;43467;50.890;5.982;2023-02-11T00:45:37;102052.88;;;7.09;76.37
36234;BME280;43467;50.890;5.982;2023-02-11T00:48:03;102056.38;;;7.01;76.85
36234;BME280;43467;50.890;5.982;2023-02-11T00:50:28;102049.38;;;6.97;76.84
36234;BME280;43467;50.890;5.982;2023-02-11T00:52:53;102057.25;;;7.07;76.84
36234;BME280;43467;50.890;5.982;2023-02-11T00:55:19;102051.16;;;6.95;76.89
36234;BME280;43467;50.890;5.982;2023-02-11T00:57:44;102050.28;;;6.95;77.11
36234;BME280;43467;50.890;5.982;2023-02-11T01:00:11;102052.03;;;6.99;77.10
36234;BME280;43467;50.890;5.982;2023-02-11T01:02:37;102043.28;;;6.83;77.14
36234;BME280;43467;50.890;5.982;2023-02-11T01:05:03;102059.03;;;6.97;76.69
36234;BME280;43467;50.890;5.982;2023-02-11T01:07:28;102056.38;;;7.06;76.63
36234;BME280;43467;50.890;5.982;2023-02-11T01:09:54;102057.28;;;7.02;76.60
36234;BME280;43467;50.890;5.982;2023-02-11T01:12:19;102059.88;;;7.10;76.46
36234;BME280;43467;50.890;5.982;2023-02-11T01:14:45;102066.91;;;7.17;75.67
36234;BME280;43467;50.890;5.982;2023-02-11T01:17:10;102064.25;;;7.27;75.28
36234;BME280;43467;50.890;5.982;2023-02-11T01:19:36;102067.75;;;7.28;75.45
36234;BME280;43467;50.890;5.982;2023-02-11T01:22:03;102076.50;;;7.40;74.67
36234;BME280;43467;50.890;5.982;2023-02-11T01:24:28;102072.09;;;7.42;74.59
36234;BME280;43467;50.890;5.982;2023-02-11T01:26:54;102077.41;;;7.26;75.38
36234;BME280;43467;50.890;5.982;2023-02-11T01:29:20;102073.00;;;7.35;75.12
36234;BME280;43467;50.890;5.982;2023-02-11T01:31:45;102064.25;;;7.20;75.66
36234;BME280;43467;50.890;5.982;2023-02-11T01:34:11;102078.31;;;7.19;75.49
36234;BME280;43467;50.890;5.982;2023-02-11T01:36:37;102073.91;;;7.28;75.71
36234;BME280;43467;50.890;5.982;2023-02-11T01:39:02;102083.56;;;7.25;75.77
36234;BME280;43467;50.890;5.982;2023-02-11T01:41:28;102085.34;;;7.17;75.95
36234;BME280;43467;50.890;5.982;2023-02-11T01:43:53;102080.94;;;7.14;76.07
36234;BME280;43467;50.890;5.982;2023-02-11T01:49:00;102076.50;;;7.39;75.33
36234;BME280;43467;50.890;5.982;2023-02-11T01:51:31;102080.94;;;7.29;75.57
36234;BME280;43467;50.890;5.982;2023-02-11T01:53:59;102077.44;;;7.18;76.14
36234;BME280;43467;50.890;5.982;2023-02-11T01:56:48;102070.41;;;7.14;76.05
36234;BME280;43467;50.890;5.982;2023-02-11T01:59:42;102079.19;;;7.10;76.79
36234;BME280;43467;50.890;5.982;2023-02-11T02:02:11;102085.31;;;7.23;76.48
36234;BME280;43467;50.890;5.982;2023-02-11T02:04:43;102086.22;;;7.25;76.06
36234;BME280;43467;50.890;5.982;2023-02-11T02:07:27;102087.94;;;7.27;76.18
36234;BME280;43467;50.890;5.982;2023-02-11T02:09:57;102086.22;;;7.14;76.81
36234;BME280;43467;50.890;5.982;2023-02-11T02:12:24;102065.16;;;7.02;77.00
36234;BME280;43467;50.890;5.982;2023-02-11T02:14:49;102084.47;;;7.21;76.62
36234;BME280;43467;50.890;5.982;2023-02-11T02:17:27;102083.59;;;7.14;76.97
36234;BME280;43467;50.890;5.982;2023-02-11T02:23:03;102092.34;;;7.18;77.38
36234;BME280;43467;50.890;5.982;2023-02-11T02:25:40;102077.44;;;7.20;77.36
36234;BME280;43467;50.890;5.982;2023-02-11T02:33:44;102059.00;;;7.14;78.07
36234;BME280;43467;50.890;5.982;2023-02-11T02:37:14;102067.75;;;7.23;78.20
36234;BME280;43467;50.890;5.982;2023-02-11T02:39:35;102063.38;;;7.28;77.84
36234;BME280;43467;50.890;5.982;2023-02-11T02:42:02;102049.31;;;7.26;77.44
36234;BME280;43467;50.890;5.982;2023-02-11T02:44:28;102060.75;;;7.16;77.64
36234;BME280;43467;50.890;5.982;2023-02-11T02:46:54;102056.38;;;7.15;77.82
36234;BME280;43467;50.890;5.982;2023-02-11T02:49:19;102054.66;;;7.04;78.38
36234;BME280;43467;50.890;5.982;2023-02-11T02:52:00;102068.69;;;7.07;78.47
36234;BME280;43467;50.890;5.982;2023-02-11T03:06:44;102056.38;;;7.06;78.32
36234;BME280;43467;50.890;5.982;2023-02-11T03:09:29;102054.63;;;7.07;78.07
36234;BME280;43467;50.890;5.982;2023-02-11T03:11:56;102053.75;;;6.97;78.33
36234;BME280;43467;50.890;5.982;2023-02-11T03:14:22;102038.88;;;6.87;79.22
36234;BME280;43467;50.890;5.982;2023-02-11T03:16:51;102034.50;;;6.87;79.19
36234;BME280;43467;50.890;5.982;2023-02-11T03:19:23;102039.78;;;6.84;79.65
36234;BME280;43467;50.890;5.982;2023-02-11T03:21:52;102020.44;;;6.91;79.25
36234;BME280;43467;50.890;5.982;2023-02-11T03:24:27;102018.72;;;6.84;79.70
36234;BME280;43467;50.890;5.982;2023-02-11T03:26:57;102025.72;;;6.88;79.86
36234;BME280;43467;50.890;5.982;2023-02-11T03:29:32;102027.47;;;6.79;80.16
36234;BME280;43467;50.890;5.982;2023-02-11T03:32:08;102027.47;;;6.88;80.15
36234;BME280;43467;50.890;5.982;2023-02-11T03:34:56;102028.34;;;6.91;79.38
36234;BME280;43467;50.890;5.982;2023-02-11T03:37:31;102028.31;;;7.02;79.39
36234;BME280;43467;50.890;5.982;2023-02-11T03:40:04;102040.59;;;7.06;79.25
36234;BME280;43467;50.890;5.982;2023-02-11T03:42:42;102039.75;;;6.78;80.24
36234;BME280;43467;50.890;5.982;2023-02-11T03:45:10;102035.34;;;6.91;80.21
36234;BME280;43467;50.890;5.982;2023-02-11T03:47:39;102037.13;;;6.86;80.09
36234;BME280;43467;50.890;5.982;2023-02-11T03:50:07;102038.88;;;6.88;80.01
36234;BME280;43467;50.890;5.982;2023-02-11T03:52:35;102035.38;;;6.82;80.07
36234;BME280;43467;50.890;5.982;2023-02-11T03:55:05;102028.34;;;6.81;80.15
36234;BME280;43467;50.890;5.982;2023-02-11T03:57:32;102023.97;;;6.80;79.93
36234;BME280;43467;50.890;5.982;2023-02-11T03:59:58;102012.56;;;6.84;79.64
36234;BME280;43467;50.890;5.982;2023-02-11T04:02:29;102019.56;;;6.82;79.88
36234;BME280;43467;50.890;5.982;2023-02-11T04:04:55;102022.22;;;6.88;79.80
36234;BME280;43467;50.890;5.982;2023-02-11T04:07:22;102012.53;;;6.85;79.73
36234;BME280;43467;50.890;5.982;2023-02-11T04:09:47;102015.16;;;6.93;79.62
36234;BME280;43467;50.890;5.982;2023-02-11T04:12:13;102023.06;;;6.85;80.20
36234;BME280;43467;50.890;5.982;2023-02-11T04:14:38;102016.94;;;6.92;80.51
36234;BME280;43467;50.890;5.982;2023-02-11T04:17:04;102009.94;;;6.78;81.27
36234;BME280;43467;50.890;5.982;2023-02-11T04:19:29;102018.69;;;6.87;81.83
36234;BME280;43467;50.890;5.982;2023-02-11T04:21:55;102024.81;;;6.85;82.32
36234;BME280;43467;50.890;5.982;2023-02-11T04:24:20;102020.44;;;6.82;82.44
36234;BME280;43467;50.890;5.982;2023-02-11T04:26:45;102028.34;;;6.88;82.75
36234;BME280;43467;50.890;5.982;2023-02-11T04:29:11;102024.84;;;6.77;83.34
36234;BME280;43467;50.890;5.982;2023-02-11T04:31:36;102020.47;;;6.73;84.62
36234;BME280;43467;50.890;5.982;2023-02-11T04:34:02;102018.72;;;6.68;86.08
36234;BME280;43467;50.890;5.982;2023-02-11T04:36:27;102002.94;;;6.54;87.14
36234;BME280;43467;50.890;5.982;2023-02-11T04:38:52;102006.47;;;6.59;87.60
36234;BME280;43467;50.890;5.982;2023-02-11T04:41:18;102003.81;;;6.62;88.14
36234;BME280;43467;50.890;5.982;2023-02-11T04:43:43;101997.69;;;6.56;88.57
36234;BME280;43467;50.890;5.982;2023-02-11T04:46:08;102006.47;;;6.59;89.14
36234;BME280;43467;50.890;5.982;2023-02-11T04:48:34;102004.72;;;6.64;89.09
36234;BME280;43467;50.890;5.982;2023-02-11T04:51:00;101999.44;;;6.55;89.54
36234;BME280;43467;50.890;5.982;2023-02-11T04:53:26;102000.31;;;6.52;89.73
36234;BME280;43467;50.890;5.982;2023-02-11T04:55:51;102003.81;;;6.53;89.95
36234;BME280;43467;50.890;5.982;2023-02-11T04:58:17;101977.50;;;6.48;90.15
36234;BME280;43467;50.890;5.982;2023-02-11T05:00:43;101997.66;;;6.66;89.86
36234;BME280;43467;50.890;5.982;2023-02-11T05:03:09;101999.44;;;6.49;90.35
36234;BME280;43467;50.890;5.982;2023-02-11T05:05:37;102004.69;;;6.53;90.42
36234;BME280;43467;50.890;5.982;2023-02-11T05:08:04;102005.59;;;6.49;90.51
36234;BME280;43467;50.890;5.982;2023-02-11T05:10:30;102002.06;;;6.61;90.14
36234;BME280;43467;50.890;5.982;2023-02-11T05:12:55;102002.06;;;6.72;89.85
36234;BME280;43467;50.890;5.982;2023-02-11T05:15:21;101990.66;;;6.59;90.10
36234;BME280;43467;50.890;5.982;2023-02-11T05:17:46;101934.53;;;6.36;89.70
36234;BME280;43467;50.890;5.982;2023-02-11T05:20:11;101976.63;;;6.66;89.36
36234;BME280;43467;50.890;5.982;2023-02-11T05:22:37;101991.50;;;6.73;89.95
36234;BME280;43467;50.890;5.982;2023-02-11T05:25:02;101990.63;;;6.73;90.53
36234;BME280;43467;50.890;5.982;2023-02-11T05:27:28;101983.63;;;6.69;91.01
36234;BME280;43467;50.890;5.982;2023-02-11T05:29:53;101978.38;;;6.67;91.31
36234;BME280;43467;50.890;5.982;2023-02-11T05:32:18;101987.13;;;6.65;91.98
36234;BME280;43467;50.890;5.982;2023-02-11T05:34:44;101988.88;;;6.66;92.16
36234;BME280;43467;50.890;5.982;2023-02-11T05:37:09;101995.91;;;6.65;92.29
36234;BME280;43467;50.890;5.982;2023-02-11T05:39:34;101990.66;;;6.62;92.44
36234;BME280;43467;50.890;5.982;2023-02-11T05:42:00;101987.13;;;6.66;92.36
36234;BME280;43467;50.890;5.982;2023-02-11T05:44:25;101981.03;;;6.60;92.46
36234;BME280;43467;50.890;5.982;2023-02-11T05:46:51;101981.00;;;6.66;92.34
36234;BME280;43467;50.890;5.982;2023-02-11T05:49:16;101981.00;;;6.49;93.13
36234;BME280;43467;50.890;5.982;2023-02-11T05:51:42;101978.38;;;6.57;93.30
36234;BME280;43467;50.890;5.982;2023-02-11T05:54:07;101984.53;;;6.63;92.83
36234;BME280;43467;50.890;5.982;2023-02-11T05:56:33;101993.28;;;6.71;92.48
36234;BME280;43467;50.890;5.982;2023-02-11T05:58:59;101981.00;;;6.67;92.71
36234;BME280;43467;50.890;5.982;2023-02-11T06:01:25;101991.53;;;6.72;92.21
36234;BME280;43467;50.890;5.982;2023-02-11T06:03:50;101988.88;;;6.76;92.33
36234;BME280;43467;50.890;5.982;2023-02-11T06:06:16;101980.94;;;6.81;91.90
36234;BME280;43467;50.890;5.982;2023-02-11T06:08:42;101986.22;;;6.81;91.64
36234;BME280;43467;50.890;5.982;2023-02-11T06:11:08;101989.75;;;6.80;91.98
36234;BME280;43467;50.890;5.982;2023-02-11T06:13:34;101978.34;;;6.84;91.52
36234;BME280;43467;50.890;5.982;2023-02-11T06:16:01;101977.47;;;6.76;91.83
36234;BME280;43467;50.890;5.982;2023-02-11T06:18:27;101997.63;;;6.81;91.90
36234;BME280;43467;50.890;5.982;2023-02-11T06:20:53;101988.00;;;6.80;92.29
36234;BME280;43467;50.890;5.982;2023-02-11T06:23:19;101994.16;;;6.79;92.34
36234;BME280;43467;50.890;5.982;2023-02-11T06:25:45;101982.72;;;6.77;92.46
36234;BME280;43467;50.890;5.982;2023-02-11T06:28:10;101978.34;;;6.75;92.70
36234;BME280;43467;50.890;5.982;2023-02-11T06:30:37;101991.50;;;6.75;93.07
36234;BME280;43467;50.890;5.982;2023-02-11T06:33:02;101994.16;;;6.76;93.26
36234;BME280;43467;50.890;5.982;2023-02-11T06:35:28;101993.28;;;6.76;93.74
36234;BME280;43467;50.890;5.982;2023-02-11T06:37:53;101989.75;;;6.75;93.96
36234;BME280;43467;50.890;5.982;2023-02-11T06:40:19;101995.91;;;6.67;94.33
36234;BME280;43467;50.890;5.982;2023-02-11T06:42:45;101991.56;;;6.60;94.94
36234;BME280;43467;50.890;5.982;2023-02-11T06:45:10;102008.19;;;6.72;94.84
36234;BME280;43467;50.890;5.982;2023-02-11T06:47:40;102000.31;;;6.51;95.55
36234;BME280;43467;50.890;5.982;2023-02-11T06:50:08;102001.22;;;6.56;96.24
36234;BME280;43467;50.890;5.982;2023-02-11T06:52:34;101995.06;;;6.60;95.60
36234;BME280;43467;50.890;5.982;2023-02-11T06:55:00;101994.19;;;6.64;95.79
36234;BME280;43467;50.890;5.982;2023-02-11T06:57:25;101994.19;;;6.49;96.64
36234;BME280;43467;50.890;5.982;2023-02-11T06:59:51;101998.56;;;6.50;96.69
36234;BME280;43467;50.890;5.982;2023-02-11T07:02:16;102003.81;;;6.61;97.06
36234;BME280;43467;50.890;5.982;2023-02-11T07:04:41;101996.81;;;6.53;96.87
36234;BME280;43467;50.890;5.982;2023-02-11T07:07:07;101993.31;;;6.47;97.65
36234;BME280;43467;50.890;5.982;2023-02-11T07:09:32;101997.69;;;6.42;98.19
36234;BME280;43467;50.890;5.982;2023-02-11T07:11:57;101998.56;;;6.32;98.93
36234;BME280;43467;50.890;5.982;2023-02-11T07:14:23;102012.63;;;6.35;99.10
36234;BME280;43467;50.890;5.982;2023-02-11T07:16:48;102007.34;;;6.38;99.26
36234;BME280;43467;50.890;5.982;2023-02-11T07:19:14;102008.22;;;6.54;98.52
36234;BME280;43467;50.890;5.982;2023-02-11T07:21:39;102011.72;;;6.50;98.33
36234;BME280;43467;50.890;5.982;2023-02-11T07:24:06;102012.59;;;6.60;98.53
36234;BME280;43467;50.890;5.982;2023-02-11T07:26:32;102006.47;;;6.56;98.09
36234;BME280;43467;50.890;5.982;2023-02-11T07:28:57;102014.34;;;6.48;98.11
36234;BME280;43467;50.890;5.982;2023-02-11T07:31:25;102010.88;;;6.48;98.66
36234;BME280;43467;50.890;5.982;2023-02-11T07:33:53;102022.25;;;6.56;98.68
36234;BME280;43467;50.890;5.982;2023-02-11T07:36:19;102021.38;;;6.54;98.46
36234;BME280;43467;50.890;5.982;2023-02-11T07:38:44;102041.53;;;6.58;98.27
36234;BME280;43467;50.890;5.982;2023-02-11T07:41:13;102043.28;;;6.62;98.06
36234;BME280;43467;50.890;5.982;2023-02-11T07:43:40;102043.31;;;6.56;98.44
36234;BME280;43467;50.890;5.982;2023-02-11T07:46:11;102051.19;;;6.50;98.51
36234;BME280;43467;50.890;5.982;2023-02-11T07:48:37;102046.78;;;6.61;98.65
36234;BME280;43467;50.890;5.982;2023-02-11T07:51:17;102059.97;;;6.70;97.71
36234;BME280;43467;50.890;5.982;2023-02-11T07:53:43;102055.59;;;6.72;97.50
36234;BME280;43467;50.890;5.982;2023-02-11T07:56:10;102059.06;;;6.73;97.37
36234;BME280;43467;50.890;5.982;2023-02-11T07:58:36;102050.31;;;6.71;96.97
36234;BME280;43467;50.890;5.982;2023-02-11T08:01:06;102053.84;;;6.68;97.01
36234;BME280;43467;50.890;5.982;2023-02-11T08:03:32;102055.56;;;6.69;97.31
36234;BME280;43467;50.890;5.982;2023-02-11T08:05:58;102048.56;;;6.62;98.10
36234;BME280;43467;50.890;5.982;2023-02-11T08:08:26;102050.31;;;6.56;98.54
36234;BME280;43467;50.890;5.982;2023-02-11T08:10:52;102047.69;;;6.60;98.70
36234;BME280;43467;50.890;5.982;2023-02-11T08:13:17;102053.81;;;6.59;98.72
36234;BME280;43467;50.890;5.982;2023-02-11T08:15:44;102047.69;;;6.56;98.90
36234;BME280;43467;50.890;5.982;2023-02-11T08:18:09;102062.59;;;6.57;99.17
36234;BME280;43467;50.890;5.982;2023-02-11T08:20:34;102066.97;;;6.50;99.74
36234;BME280;43467;50.890;5.982;2023-02-11T08:23:00;102067.00;;;6.47;100.00
36234;BME280;43467;50.890;5.982;2023-02-11T08:25:26;102061.72;;;6.51;99.89
36234;BME280;43467;50.890;5.982;2023-02-11T08:27:51;102066.97;;;6.65;99.63
36234;BME280;43467;50.890;5.982;2023-02-11T08:30:17;102062.56;;;6.73;98.65
36234;BME280;43467;50.890;5.982;2023-02-11T08:32:42;102061.69;;;6.77;98.51
36234;BME280;43467;50.890;5.982;2023-02-11T08:35:08;102071.38;;;6.75;98.45
36234;BME280;43467;50.890;5.982;2023-02-11T08:37:36;102064.34;;;6.76;98.40
36234;BME280;43467;50.890;5.982;2023-02-11T08:40:02;102073.13;;;6.63;98.89
36234;BME280;43467;50.890;5.982;2023-02-11T08:42:27;102083.66;;;6.70;98.96
36234;BME280;43467;50.890;5.982;2023-02-11T08:44:52;102083.66;;;6.84;98.24
36234;BME280;43467;50.890;5.982;2023-02-11T08:47:18;102083.66;;;6.64;99.04
36234;BME280;43467;50.890;5.982;2023-02-11T08:49:43;102089.78;;;6.77;98.84
36234;BME280;43467;50.890;5.982;2023-02-11T08:52:08;102091.53;;;6.84;98.35
36234;BME280;43467;50.890;5.982;2023-02-11T08:54:34;102081.00;;;6.81;98.33
36234;BME280;43467;50.890;5.982;2023-02-11T08:56:59;102086.28;;;6.70;98.78
36234;BME280;43467;50.890;5.982;2023-02-11T08:59:26;102083.66;;;6.70;98.99
36234;BME280;43467;50.890;5.982;2023-02-11T09:01:51;102091.53;;;6.81;99.05
36234;BME280;43467;50.890;5.982;2023-02-11T09:04:17;102097.69;;;6.80;98.37
36234;BME280;43467;50.890;5.982;2023-02-11T09:06:42;102097.69;;;6.84;98.89
36234;BME280;43467;50.890;5.982;2023-02-11T09:09:11;102095.91;;;6.91;98.35
36234;BME280;43467;50.890;5.982;2023-02-11T09:11:38;102091.53;;;6.73;98.76
36234;BME280;43467;50.890;5.982;2023-02-11T09:14:06;102078.34;;;6.85;98.63
36234;BME280;43467;50.890;5.982;2023-02-11T09:16:34;102080.09;;;6.89;98.10
36234;BME280;43467;50.890;5.982;2023-02-11T09:19:01;102086.25;;;6.93;98.52
36234;BME280;43467;50.890;5.982;2023-02-11T09:21:27;102103.78;;;6.97;98.04
36234;BME280;43467;50.890;5.982;2023-02-11T09:23:53;102104.69;;;6.99;97.41
36234;BME280;43467;50.890;5.982;2023-02-11T09:26:20;102107.34;;;6.96;97.65
36234;BME280;43467;50.890;5.982;2023-02-11T09:28:46;102096.78;;;6.93;98.31
36234;BME280;43467;50.890;5.982;2023-02-11T09:31:15;102109.97;;;6.87;98.11
36234;BME280;43467;50.890;5.982;2023-02-11T09:33:43;102115.22;;;6.99;98.17
36234;BME280;43467;50.890;5.982;2023-02-11T09:36:13;102114.31;;;6.97;97.97
36234;BME280;43467;50.890;5.982;2023-02-11T09:38:39;102114.34;;;7.00;98.11
36234;BME280;43467;50.890;5.982;2023-02-11T09:41:05;102109.97;;;6.91;98.08
36234;BME280;43467;50.890;5.982;2023-02-11T09:43:40;102112.56;;;6.93;98.09
36234;BME280;43467;50.890;5.982;2023-02-11T09:46:12;102122.25;;;7.08;98.34
36234;BME280;43467;50.890;5.982;2023-02-11T09:48:40;102123.09;;;7.02;97.79
36234;BME280;43467;50.890;5.982;2023-02-11T09:51:18;102120.47;;;7.16;97.69
36234;BME280;43467;50.890;5.982;2023-02-11T09:53:44;102130.13;;;7.11;97.43
36234;BME280;43467;50.890;5.982;2023-02-11T09:56:14;102130.13;;;7.15;97.74
36234;BME280;43467;50.890;5.982;2023-02-11T09:58:43;102140.69;;;7.12;97.61
36234;BME280;43467;50.890;5.982;2023-02-11T10:07:50;102144.19;;;7.16;97.72
36234;BME280;43467;50.890;5.982;2023-02-11T10:22:56;102146.81;;;7.19;98.12
36234;BME280;43467;50.890;5.982;2023-02-11T10:25:25;102146.81;;;7.16;98.47
36234;BME280;43467;50.890;5.982;2023-02-11T10:27:53;102155.59;;;7.15;98.78
36234;BME280;43467;50.890;5.982;2023-02-11T10:30:30;102151.22;;;7.12;99.37
36234;BME280;43467;50.890;5.982;2023-02-11T10:35:54;102160.84;;;7.27;98.94
36234;BME280;43467;50.890;5.982;2023-02-11T10:38:20;102134.50;;;7.10;98.57
36234;BME280;43467;50.890;5.982;2023-02-11T10:40:45;102149.44;;;7.11;99.05
36234;BME280;43467;50.890;5.982;2023-02-11T10:43:15;102159.94;;;7.34;98.51
36234;BME280;43467;50.890;5.982;2023-02-11T10:45:44;102160.88;;;7.21;99.16
36234;BME280;43467;50.890;5.982;2023-02-11T10:48:46;102168.75;;;7.28;98.87
36234;BME280;43467;50.890;5.982;2023-02-11T10:51:29;102170.50;;;7.37;98.14
36234;BME280;43467;50.890;5.982;2023-02-11T10:56:39;102155.56;;;7.28;98.34
36234;BME280;43467;50.890;5.982;2023-02-11T10:59:28;102164.28;;;7.50;97.84
36234;BME280;43467;50.890;5.982;2023-02-11T11:02:06;102151.16;;;7.35;98.58
36234;BME280;43467;50.890;5.982;2023-02-11T11:04:44;102161.72;;;7.36;98.97
36234;BME280;43467;50.890;5.982;2023-02-11T11:09:49;102156.44;;;7.45;98.79
36234;BME280;43467;50.890;5.982;2023-02-11T11:12:33;102159.94;;;7.49;98.57
36234;BME280;43467;50.890;5.982;2023-02-11T11:15:16;102148.53;;;7.41;98.35
36234;BME280;43467;50.890;5.982;2023-02-11T11:17:44;102160.81;;;7.45;98.79
36234;BME280;43467;50.890;5.982;2023-02-11T11:20:24;102159.06;;;7.38;99.08
36234;BME280;43467;50.890;5.982;2023-02-11T11:23:06;102156.41;;;7.44;99.19
36234;BME280;43467;50.890;5.982;2023-02-11T11:25:34;102163.41;;;7.54;98.69
36234;BME280;43467;50.890;5.982;2023-02-11T11:28:02;102165.19;;;7.49;98.89
36234;BME280;43467;50.890;5.982;2023-02-11T11:30:38;102167.81;;;7.57;99.41
36234;BME280;43467;50.890;5.982;2023-02-11T11:33:16;102134.44;;;7.42;98.67
36234;BME280;43467;50.890;5.982;2023-02-11T11:35:43;102169.53;;;7.70;98.37
36234;BME280;43467;50.890;5.982;2023-02-11T11:38:17;102157.22;;;7.73;97.90
36234;BME280;43467;50.890;5.982;2023-02-11T11:40:42;102154.59;;;7.73;97.78
36234;BME280;43467;50.890;5.982;2023-02-11T11:43:16;102163.34;;;7.77;97.79
36234;BME280;43467;50.890;5.982;2023-02-11T11:45:57;102159.84;;;7.75;97.62
36234;BME280;43467;50.890;5.982;2023-02-11T11:48:30;102155.44;;;7.71;97.90
36234;BME280;43467;50.890;5.982;2023-02-11T11:51:00;102155.47;;;7.63;98.12
36234;BME280;43467;50.890;5.982;2023-02-11T11:56:14;102164.31;;;7.58;99.11
36234;BME280;43467;50.890;5.982;2023-02-11T11:58:41;102164.25;;;7.67;98.79
36234;BME280;43467;50.890;5.982;2023-02-11T12:07:01;102141.44;;;7.61;99.01
36234;BME280;43467;50.890;5.982;2023-02-11T12:15:42;102144.06;;;7.66;99.50
36234;BME280;43467;50.890;5.982;2023-02-11T12:21:19;102150.19;;;7.74;98.87
36234;BME280;43467;50.890;5.982;2023-02-11T12:26:17;102150.19;;;7.78;98.62
36234;BME280;43467;50.890;5.982;2023-02-11T12:40:18;102142.16;;;7.95;97.84
36234;BME280;43467;50.890;5.982;2023-02-11T12:59:07;102151.72;;;8.20;96.72
36234;BME280;43467;50.890;5.982;2023-02-11T13:01:38;102138.63;;;8.07;97.28
36234;BME280;43467;50.890;5.982;2023-02-11T13:04:15;102134.25;;;7.97;97.74
36234;BME280;43467;50.890;5.982;2023-02-11T13:06:46;102136.88;;;8.00;98.15
36234;BME280;43467;50.890;5.982;2023-02-11T13:09:21;102156.16;;;8.17;97.61
36234;BME280;43467;50.890;5.982;2023-02-11T13:11:50;102135.09;;;8.09;97.43
36234;BME280;43467;50.890;5.982;2023-02-11T13:14:30;102137.72;;;8.08;98.38
36234;BME280;43467;50.890;5.982;2023-02-11T13:16:59;102135.97;;;8.10;98.28
36234;BME280;43467;50.890;5.982;2023-02-11T13:19:47;102136.88;;;8.06;98.56
36234;BME280;43467;50.890;5.982;2023-02-11T13:22:42;102134.19;;;8.09;98.35
36234;BME280;43467;50.890;5.982;2023-02-11T13:25:24;102142.19;;;7.92;99.34
36234;BME280;43467;50.890;5.982;2023-02-11T13:28:15;102143.91;;;8.02;99.20
36234;BME280;43467;50.890;5.982;2023-02-11T13:30:44;102139.47;;;8.10;98.54
36234;BME280;43467;50.890;5.982;2023-02-11T13:38:23;102130.69;;;8.08;98.35
36234;BME280;43467;50.890;5.982;2023-02-11T13:41:02;102134.16;;;8.16;98.18
36234;BME280;43467;50.890;5.982;2023-02-11T13:43:30;102133.28;;;8.17;97.82
36234;BME280;43467;50.890;5.982;2023-02-11T13:45:59;102126.25;;;8.12;98.28
36234;BME280;43467;50.890;5.982;2023-02-11T13:51:10;102118.34;;;8.15;98.12
36234;BME280;43467;50.890;5.982;2023-02-11T13:56:32;102120.09;;;8.16;98.09
36234;BME280;43467;50.890;5.982;2023-02-11T13:58:59;102119.16;;;8.29;97.97
36234;BME280;43467;50.890;5.982;2023-02-11T14:04:32;102117.44;;;8.22;97.60
36234;BME280;43467;50.890;5.982;2023-02-11T14:16:07;102133.16;;;8.42;96.85
36234;BME280;43467;50.890;5.982;2023-02-11T14:23:52;102146.28;;;8.55;95.60
36234;BME280;43467;50.890;5.982;2023-02-11T14:28:46;102146.19;;;8.64;95.22
36234;BME280;43467;50.890;5.982;2023-02-11T14:31:20;102140.91;;;8.64;95.11
36234;BME280;43467;50.890;5.982;2023-02-11T14:41:48;102126.88;;;8.58;95.41
36234;BME280;43467;50.890;5.982;2023-02-11T14:44:23;102136.44;;;8.74;94.73
36234;BME280;43467;50.890;5.982;2023-02-11T14:46:50;102135.63;;;8.64;95.21
36234;BME280;43467;50.890;5.982;2023-02-11T14:49:33;102132.06;;;8.70;94.98
36234;BME280;43467;50.890;5.982;2023-02-11T14:52:15;102129.59;;;8.49;95.34
36234;BME280;43467;50.890;5.982;2023-02-11T14:54:43;102118.13;;;8.53;95.53
36234;BME280;43467;50.890;5.982;2023-02-11T14:57:18;102142.69;;;8.62;95.47
36234;BME280;43467;50.890;5.982;2023-02-11T14:59:56;102143.53;;;8.69;95.06
36234;BME280;43467;50.890;5.982;2023-02-11T15:02:34;102136.47;;;8.69;95.03
36234;BME280;43467;50.890;5.982;2023-02-11T15:05:22;102141.72;;;8.75;94.69
36234;BME280;43467;50.890;5.982;2023-02-11T15:08:13;102148.78;;;8.75;94.52
36234;BME280;43467;50.890;5.982;2023-02-11T15:10:42;102148.81;;;8.70;94.60
36234;BME280;43467;50.890;5.982;2023-02-11T15:13:16;102150.50;;;8.79;94.53
36234;BME280;43467;50.890;5.982;2023-02-11T15:15:43;102146.91;;;8.86;93.76
36234;BME280;43467;50.890;5.982;2023-02-11T15:18:17;102137.22;;;8.85;94.14
36234;BME280;43467;50.890;5.982;2023-02-11T15:20:46;102138.06;;;8.88;94.18
36234;BME280;43467;50.890;5.982;2023-02-11T15:23:24;102142.44;;;8.93;93.97
36234;BME280;43467;50.890;5.982;2023-02-11T15:25:50;102140.81;;;8.79;94.52
36234;BME280;43467;50.890;5.982;2023-02-11T15:28:25;102131.09;;;8.81;94.33